createdAt,value
2019-04-26T00:00:27.051Z,15.47
2019-04-26T00:02:57.146Z,14.80
2019-04-26T00:05:34.273Z,15.13
2019-04-26T00:07:56.173Z,14.97
2019-04-26T00:10:26.430Z,16.50
2019-04-26T00:12:56.898Z,15.80
2019-04-26T00:15:43.438Z,16.13
2019-04-26T00:18:12.798Z,15.47
2019-04-26T00:20:41.372Z,15.97
2019-04-26T00:23:10.735Z,15.37
2019-04-26T00:25:39.721Z,17.37
2019-04-26T00:28:08.453Z,15.63
2019-04-26T00:30:36.885Z,15.77
2019-04-26T00:33:05.409Z,15.67
2019-04-26T00:35:46.546Z,16.73
2019-04-26T00:38:04.106Z,17.07
2019-04-26T00:40:35.286Z,15.93
2019-04-26T00:43:04.594Z,17.83
2019-04-26T00:45:35.790Z,16.83
2019-04-26T00:48:04.694Z,16.90
2019-04-26T00:50:33.690Z,17.50
2019-04-26T00:53:02.890Z,16.90
2019-04-26T00:55:34.137Z,17.07
2019-04-26T00:58:03.360Z,18.27
2019-04-26T01:00:32.061Z,16.83
2019-04-26T01:03:00.593Z,17.90
2019-04-26T01:05:31.840Z,17.87
2019-04-26T01:08:00.294Z,17.93
2019-04-26T01:10:28.774Z,17.87
2019-04-26T01:12:57.284Z,18.33
2019-04-26T01:15:26.631Z,16.90
2019-04-26T01:17:55.137Z,18.30
2019-04-26T01:20:25.397Z,17.63
2019-04-26T01:22:56.434Z,17.97
2019-04-26T01:25:46.442Z,18.17
2019-04-26T01:28:21.302Z,18.23
2019-04-26T01:30:50.695Z,18.10
2019-04-26T01:33:20.114Z,18.83
2019-04-26T01:35:48.865Z,18.33
2019-04-26T01:38:17.871Z,18.10
2019-04-26T01:40:47.966Z,19.73
2019-04-26T01:43:33.653Z,19.57
2019-04-26T01:46:06.392Z,18.23
2019-04-26T01:48:44.837Z,20.10
2019-04-26T01:51:16.354Z,19.10
2019-04-26T01:53:48.038Z,19.13
2019-04-26T01:56:19.122Z,19.53
2019-04-26T01:58:48.746Z,19.03
2019-04-26T02:01:22.718Z,20.57
2019-04-26T02:03:52.219Z,20.43
2019-04-26T02:06:28.826Z,19.20
2019-04-26T02:08:51.277Z,20.23
2019-04-26T02:11:19.814Z,18.90
2019-04-26T02:13:48.327Z,19.40
2019-04-26T02:16:16.807Z,18.73
2019-04-26T02:18:45.680Z,20.00
2019-04-26T02:21:16.515Z,19.20
2019-04-26T02:23:49.938Z,20.07
2019-04-26T02:26:34.870Z,20.70
2019-04-26T02:29:12.270Z,19.57
2019-04-26T02:31:43.150Z,19.37
2019-04-26T02:34:13.109Z,20.73
2019-04-26T02:36:55.818Z,20.93
2019-04-26T02:39:20.334Z,21.43
2019-04-26T02:41:51.625Z,22.93
2019-04-26T02:44:23.060Z,21.00
2019-04-26T02:47:11.060Z,22.57
2019-04-26T02:49:45.352Z,21.50
2019-04-26T02:52:25.556Z,22.27
2019-04-26T02:55:06.225Z,21.00
2019-04-26T02:57:43.775Z,23.13
2019-04-26T03:00:14.754Z,23.80
2019-04-26T03:02:46.509Z,21.27
2019-04-26T03:05:15.413Z,20.80
2019-04-26T03:07:53.064Z,23.07
2019-04-26T03:10:24.667Z,22.93
2019-04-26T03:12:56.335Z,22.40
2019-04-26T03:15:42.544Z,22.37
2019-04-26T03:18:34.618Z,22.93
2019-04-26T03:21:05.431Z,23.07
2019-04-26T03:23:55.633Z,24.33
2019-04-26T03:26:19.253Z,24.77
2019-04-26T03:29:07.274Z,24.90
2019-04-26T03:32:15.752Z,24.63
2019-04-26T03:34:57.501Z,25.37
2019-04-26T03:37:54.438Z,23.20
2019-04-26T03:40:48.140Z,24.53
2019-04-26T03:43:39.135Z,26.23
2019-04-26T03:46:19.123Z,24.10
2019-04-26T03:48:53.540Z,26.93
2019-04-26T03:51:25.193Z,24.80
2019-04-26T03:54:02.628Z,26.97
2019-04-26T03:56:36.622Z,27.17
2019-04-26T03:59:13.462Z,24.23
2019-04-26T04:01:55.232Z,26.40
2019-04-26T04:04:36.945Z,25.87
2019-04-26T04:07:07.554Z,27.53
2019-04-26T04:09:39.805Z,25.37
2019-04-26T04:12:24.573Z,26.60
2019-04-26T04:14:59.085Z,27.17
2019-04-26T04:17:32.299Z,28.27
2019-04-26T04:20:50.630Z,28.33
2019-04-26T04:23:30.788Z,28.30
2019-04-26T04:26:02.314Z,27.90
2019-04-26T04:28:49.902Z,27.17
2019-04-26T04:31:27.119Z,26.83
2019-04-26T04:34:10.747Z,26.57
2019-04-26T04:36:50.705Z,26.40
2019-04-26T04:39:23.973Z,25.93
2019-04-26T04:42:06.157Z,24.83
2019-04-26T04:45:18.484Z,27.03
2019-04-26T04:48:13.744Z,25.77
2019-04-26T04:50:48.739Z,26.07
2019-04-26T04:53:35.043Z,27.87
2019-04-26T04:56:21.094Z,28.20
2019-04-26T04:58:55.493Z,27.13
2019-04-26T05:02:06.707Z,28.70
2019-04-26T05:04:38.251Z,29.37
2019-04-26T05:07:20.293Z,29.23
2019-04-26T05:10:10.249Z,29.70
2019-04-26T05:12:56.601Z,29.50
2019-04-26T05:16:08.993Z,30.07
2019-04-26T05:18:58.706Z,28.77
2019-04-26T05:21:36.092Z,30.17
2019-04-26T05:24:13.449Z,28.67
2019-04-26T05:27:12.219Z,29.13
2019-04-26T05:30:21.676Z,27.23
2019-04-26T05:32:55.650Z,27.47
2019-04-26T05:35:49.165Z,26.57
2019-04-26T05:38:38.923Z,26.47
2019-04-26T05:41:34.807Z,27.67
2019-04-26T05:44:24.524Z,27.37
2019-04-26T05:47:03.420Z,27.03
2019-04-26T05:50:08.505Z,26.97
2019-04-26T05:53:07.239Z,30.33
2019-04-26T05:56:04.605Z,30.50
2019-04-26T05:58:36.176Z,26.50
2019-04-26T06:01:21.206Z,26.63
2019-04-26T06:04:06.400Z,26.50
2019-04-26T06:06:45.342Z,25.33
2019-04-26T06:09:30.649Z,25.23
2019-04-26T06:12:11.176Z,24.87
2019-04-26T06:14:51.425Z,26.30
2019-04-26T06:17:27.502Z,24.67
2019-04-26T06:20:22.303Z,23.97
2019-04-26T06:23:03.261Z,23.47
2019-04-26T06:25:45.101Z,24.73
2019-04-26T06:28:25.091Z,23.30
2019-04-26T06:30:59.811Z,26.10
2019-04-26T06:33:37.396Z,25.73
2019-04-26T06:36:09.595Z,27.07
2019-04-26T06:38:57.862Z,26.10
2019-04-26T06:41:59.401Z,26.53
2019-04-26T06:44:32.574Z,26.30
2019-04-26T06:47:24.554Z,27.43
2019-04-26T06:50:10.539Z,25.97
2019-04-26T06:52:45.041Z,27.47
2019-04-26T06:55:27.363Z,26.80
2019-04-26T06:58:27.115Z,28.60
2019-04-26T07:01:14.638Z,28.67
2019-04-26T07:04:13.624Z,30.30
2019-04-26T07:07:00.862Z,30.90
2019-04-26T07:09:50.849Z,32.50
2019-04-26T07:12:29.465Z,29.23
2019-04-26T07:15:34.331Z,28.97
2019-04-26T07:18:17.884Z,31.63
2019-04-26T07:20:53.610Z,30.23
2019-04-26T07:23:32.329Z,29.23
2019-04-26T07:26:18.674Z,29.07
2019-04-26T07:29:31.023Z,28.00
2019-04-26T07:32:05.328Z,27.17
2019-04-26T07:35:00.962Z,28.30
2019-04-26T07:37:55.171Z,28.53
2019-04-26T07:40:47.556Z,28.43
2019-04-26T07:43:29.607Z,28.93
2019-04-26T07:46:17.625Z,29.57
2019-04-26T07:49:10.173Z,31.00
2019-04-26T07:51:59.621Z,29.20
2019-04-26T07:55:04.938Z,31.47
2019-04-26T07:58:00.720Z,30.87
2019-04-26T08:00:49.219Z,33.67
2019-04-26T08:03:31.070Z,31.53
2019-04-26T08:06:06.059Z,31.30
2019-04-26T08:08:52.736Z,31.73
2019-04-26T08:11:24.341Z,32.03
2019-04-26T08:14:08.573Z,30.90
2019-04-26T08:16:41.928Z,29.70
2019-04-26T08:19:14.693Z,26.57
2019-04-26T08:21:49.079Z,25.23
2019-04-26T08:24:22.413Z,24.80
2019-04-26T08:27:13.606Z,26.57
2019-04-26T08:29:39.409Z,25.00
2019-04-26T08:32:13.265Z,27.90
2019-04-26T08:34:44.996Z,27.60
2019-04-26T08:37:23.527Z,27.97
2019-04-26T08:39:53.626Z,26.97
2019-04-26T08:42:25.146Z,28.13
2019-04-26T08:44:56.413Z,27.00
2019-04-26T08:47:39.703Z,25.50
2019-04-26T08:50:13.663Z,26.33
2019-04-26T08:52:44.891Z,25.37
2019-04-26T08:55:16.684Z,26.37
2019-04-26T08:57:48.624Z,27.07
2019-04-26T09:00:39.247Z,24.37
2019-04-26T09:03:12.506Z,23.98
2019-04-26T09:05:49.975Z,25.90
2019-04-26T09:08:20.560Z,22.32
2019-04-26T09:10:51.821Z,24.45
2019-04-26T09:13:23.348Z,25.27
2019-04-26T09:16:06.738Z,25.50
2019-04-26T09:18:43.231Z,28.12
2019-04-26T09:21:05.603Z,26.60
2019-04-26T09:23:40.307Z,27.57
2019-04-26T09:26:12.458Z,25.68
2019-04-26T09:28:58.823Z,28.83
2019-04-26T09:31:31.969Z,27.23
2019-04-26T09:34:02.239Z,26.47
2019-04-26T09:36:30.740Z,28.00
2019-04-26T09:38:59.190Z,27.60
2019-04-26T09:41:30.784Z,28.47
2019-04-26T09:44:02.590Z,25.97
2019-04-26T09:46:52.770Z,24.70
2019-04-26T09:49:23.475Z,24.57
2019-04-26T09:51:52.142Z,25.37
2019-04-26T09:54:20.610Z,19.23
2019-04-26T09:56:49.064Z,17.23
2019-04-26T09:59:17.528Z,16.30
2019-04-26T10:01:45.995Z,17.05
2019-04-26T10:04:14.448Z,15.53
2019-04-26T10:06:43.271Z,15.95
2019-04-26T10:09:17.235Z,15.38
2019-04-26T10:11:46.829Z,15.30
2019-04-26T10:14:19.973Z,16.80
2019-04-26T10:17:05.265Z,15.40
2019-04-26T10:19:35.370Z,16.87
2019-04-26T10:22:03.843Z,16.65
2019-04-26T10:24:32.313Z,15.80
2019-04-26T10:27:03.384Z,15.50
2019-04-26T10:29:31.043Z,13.38
2019-04-26T10:31:59.684Z,14.53
2019-04-26T10:34:28.172Z,13.43
2019-04-26T10:36:57.035Z,11.95
2019-04-26T10:39:28.533Z,12.18
2019-04-26T10:41:56.150Z,11.40
2019-04-26T10:44:24.700Z,11.03
2019-04-26T10:46:55.579Z,11.00
2019-04-26T10:49:38.375Z,11.97
2019-04-26T10:52:12.029Z,13.67
2019-04-26T10:54:46.127Z,14.47
2019-04-26T10:57:22.256Z,14.33
2019-04-26T10:59:52.348Z,15.30
2019-04-26T11:02:20.895Z,12.80
2019-04-26T11:04:49.351Z,11.87
2019-04-26T11:07:17.938Z,9.85
2019-04-26T11:09:46.459Z,9.73
2019-04-26T11:12:16.333Z,8.60
2019-04-26T11:14:44.969Z,7.77
2019-04-26T11:17:17.795Z,8.40
2019-04-26T11:19:46.401Z,9.20
2019-04-26T11:22:28.613Z,8.47
2019-04-26T11:24:53.916Z,9.33
2019-04-26T11:27:21.451Z,8.70
2019-04-26T11:29:53.949Z,8.77
2019-04-26T11:32:20.623Z,8.43
2019-04-26T11:34:49.167Z,8.27
2019-04-26T11:39:47.868Z,6.33
2019-04-26T11:40:14.098Z,8.03
2019-04-26T11:42:16.410Z,5.60
2019-04-26T11:44:44.952Z,4.20
2019-04-26T11:47:13.436Z,4.63
2019-04-26T11:49:43.010Z,3.53
2019-04-26T11:52:11.634Z,3.20
2019-04-26T11:54:40.097Z,3.00
2019-04-26T11:57:12.033Z,3.00
2019-04-26T11:59:38.737Z,4.10
2019-04-26T12:02:07.289Z,2.33
2019-04-26T12:04:37.381Z,2.00
2019-04-26T12:07:10.439Z,2.70
2019-04-26T12:09:40.564Z,2.20
2019-04-26T12:12:12.545Z,1.90
2019-04-26T12:14:39.252Z,2.00
2019-04-26T12:17:07.734Z,2.20
2019-04-26T12:19:36.249Z,2.13
2019-04-26T12:22:08.455Z,1.90
2019-04-26T12:24:35.150Z,2.00
2019-04-26T12:27:03.682Z,2.30
2019-04-26T12:29:32.163Z,2.40
2019-04-26T12:32:00.621Z,2.20
2019-04-26T12:34:29.103Z,3.00
2019-04-26T12:36:57.623Z,2.43
2019-04-26T12:39:32.361Z,2.20
2019-04-26T12:41:59.352Z,2.50
2019-04-26T12:44:32.176Z,2.70
2019-04-26T12:47:10.551Z,2.63
2019-04-26T12:49:39.012Z,3.07
2019-04-26T12:52:07.451Z,3.00
2019-04-26T12:54:39.059Z,2.70
2019-04-26T12:57:07.038Z,3.10
2019-04-26T12:59:44.129Z,2.47
2019-04-26T13:02:06.247Z,2.37
2019-04-26T13:04:36.152Z,2.90
2019-04-26T13:07:08.578Z,2.90
2019-04-26T13:09:38.986Z,2.43
2019-04-26T13:12:11.963Z,2.47
2019-04-26T13:14:54.079Z,2.30
2019-04-26T13:17:35.626Z,2.73
2019-04-26T13:20:06.560Z,2.57
2019-04-26T13:22:45.293Z,2.60
2019-04-26T13:25:15.386Z,3.00
2019-04-26T13:27:36.872Z,3.20
2019-04-26T13:30:10.518Z,3.27
2019-04-26T13:32:38.400Z,3.30
2019-04-26T13:35:07.111Z,3.13
2019-04-26T13:37:37.125Z,3.47
2019-04-26T13:40:07.212Z,2.30
2019-04-26T13:42:35.661Z,2.53
2019-04-26T13:45:09.670Z,2.93
2019-04-26T13:47:43.017Z,3.13
2019-04-26T13:50:15.915Z,2.90
2019-04-26T13:52:44.458Z,3.00
2019-04-26T13:55:13.266Z,3.10
2019-04-26T13:57:44.629Z,2.60
2019-04-26T14:00:14.283Z,2.60
2019-04-26T14:02:42.746Z,2.10
2019-04-26T14:05:15.200Z,2.43
2019-04-26T14:07:42.020Z,2.50
2019-04-26T14:10:10.814Z,1.80
2019-04-26T14:12:39.324Z,2.30
2019-04-26T14:15:08.845Z,2.20
2019-04-26T14:17:38.267Z,2.23
2019-04-26T14:20:06.780Z,2.10
2019-04-26T14:22:40.957Z,2.63
2019-04-26T14:25:11.453Z,2.13
2019-04-26T14:27:53.395Z,2.00
2019-04-26T14:30:22.109Z,1.77
2019-04-26T14:32:53.171Z,1.93
2019-04-26T14:35:20.979Z,2.83
2019-04-26T14:37:49.777Z,2.17
2019-04-26T14:40:19.697Z,2.17
2019-04-26T14:42:48.889Z,1.90
2019-04-26T14:45:23.833Z,2.67
2019-04-26T14:47:49.265Z,2.20
2019-04-26T14:50:17.723Z,2.13
2019-04-26T14:52:46.242Z,2.70
2019-04-26T14:55:16.480Z,2.20
2019-04-26T14:57:46.876Z,2.80
2019-04-26T15:00:16.688Z,2.83
2019-04-26T15:02:56.485Z,2.63
2019-04-26T15:05:33.571Z,2.87
2019-04-26T15:08:03.928Z,2.43
2019-04-26T15:10:44.014Z,2.43
2019-04-26T15:13:16.996Z,2.57
2019-04-26T15:15:36.674Z,2.20
2019-04-26T15:18:05.299Z,2.63
2019-04-26T15:20:33.748Z,2.30
2019-04-26T15:23:03.143Z,2.70
2019-04-26T15:25:31.785Z,2.90
2019-04-26T15:28:02.474Z,2.63
2019-04-26T15:30:34.266Z,2.40
2019-04-26T15:33:03.095Z,2.80
2019-04-26T15:35:32.648Z,3.60
2019-04-26T15:38:02.472Z,8.37
2019-04-26T15:40:47.819Z,2.77
2019-04-26T15:43:29.842Z,2.50
2019-04-26T15:46:13.350Z,2.70
2019-04-26T15:48:54.663Z,5.03
2019-04-26T15:51:27.476Z,4.93
2019-04-26T15:53:54.981Z,5.33
2019-04-26T15:56:23.443Z,5.70
2019-04-26T15:58:52.339Z,5.07
2019-04-26T16:01:21.037Z,5.70
2019-04-26T16:03:49.494Z,4.80
2019-04-26T16:06:17.947Z,4.93
2019-04-26T16:08:46.481Z,5.30
2019-04-26T16:11:14.954Z,5.43
2019-04-26T16:13:45.160Z,5.03
2019-04-26T16:16:16.392Z,4.90
2019-04-26T16:18:43.887Z,5.23
2019-04-26T16:21:17.900Z,4.67
2019-04-26T16:23:51.119Z,5.07
2019-04-26T16:26:15.289Z,5.17
2019-04-26T16:28:50.449Z,4.83
2019-04-26T16:31:35.691Z,5.20
2019-04-26T16:34:10.629Z,5.63
2019-04-26T16:36:42.204Z,5.40
2019-04-26T16:39:13.058Z,6.03
2019-04-26T16:41:42.156Z,5.30
2019-04-26T16:44:10.806Z,5.73
2019-04-26T16:46:39.422Z,5.50
2019-04-26T16:49:11.686Z,5.30
2019-04-26T16:51:38.192Z,5.30
2019-04-26T16:54:10.825Z,5.10
2019-04-26T16:56:37.727Z,5.17
2019-04-26T16:59:06.279Z,5.17
2019-04-26T17:01:38.132Z,5.30
2019-04-26T17:04:10.952Z,5.40
2019-04-26T17:06:35.206Z,5.23
2019-04-26T17:09:05.667Z,4.53
2019-04-26T17:11:37.855Z,4.83
2019-04-26T17:14:09.970Z,5.13
2019-04-26T17:16:38.152Z,4.70
2019-04-26T17:19:05.235Z,5.73
2019-04-26T17:21:35.414Z,5.07
2019-04-26T17:24:23.605Z,6.10
2019-04-26T17:26:53.715Z,7.00
2019-04-26T17:29:22.171Z,6.90
2019-04-26T17:31:52.142Z,6.87
2019-04-26T17:34:28.374Z,6.30
2019-04-26T17:36:52.246Z,6.73
2019-04-26T17:39:22.306Z,6.60
2019-04-26T17:41:54.266Z,5.77
2019-04-26T17:44:26.682Z,5.70
2019-04-26T17:46:56.264Z,6.60
2019-04-26T17:49:27.408Z,6.00
2019-04-26T17:51:57.845Z,6.17
2019-04-26T17:54:41.624Z,5.70
2019-04-26T17:56:52.228Z,5.87
2019-04-26T17:59:31.376Z,6.20
2019-04-26T18:01:59.873Z,5.97
2019-04-26T18:04:32.467Z,6.70
2019-04-26T18:06:57.712Z,7.07
2019-04-26T18:09:40.426Z,6.37
2019-04-26T18:11:55.337Z,5.93
2019-04-26T18:14:29.572Z,6.07
2019-04-26T18:16:57.136Z,5.50
2019-04-26T18:19:30.288Z,5.07
2019-04-26T18:21:59.914Z,4.80
2019-04-26T18:24:32.177Z,4.40
2019-04-26T18:26:59.415Z,4.00
2019-04-26T18:29:29.426Z,3.30
2019-04-26T18:32:02.890Z,3.70
2019-04-26T18:34:30.508Z,3.57
2019-04-26T18:37:02.008Z,3.40
2019-04-26T18:39:29.818Z,3.47
2019-04-26T18:42:02.404Z,3.57
2019-04-26T18:44:36.974Z,3.70
2019-04-26T18:47:00.439Z,3.57
2019-04-26T18:49:28.906Z,3.37
2019-04-26T18:51:57.373Z,3.40
2019-04-26T18:54:27.516Z,3.50
2019-04-26T18:56:57.623Z,3.57
2019-04-26T18:59:27.859Z,3.77
2019-04-26T19:01:56.302Z,3.30
2019-04-26T19:04:24.848Z,3.60
2019-04-26T19:06:53.432Z,3.90
2019-04-26T19:09:24.734Z,3.07
2019-04-26T19:11:55.980Z,3.30
2019-04-26T19:14:49.214Z,3.33
2019-04-26T19:17:30.176Z,4.60
2019-04-26T19:20:06.879Z,3.73
2019-04-26T19:22:35.376Z,3.77
2019-04-26T19:25:04.829Z,4.80
2019-04-26T19:27:33.352Z,5.37
2019-04-26T19:30:08.993Z,5.63
2019-04-26T19:32:35.501Z,7.03
2019-04-26T19:35:07.457Z,8.17
2019-04-26T19:37:37.085Z,10.07
2019-04-26T19:40:09.094Z,9.73
2019-04-26T19:42:37.583Z,9.03
2019-04-26T19:45:17.098Z,10.20
2019-04-26T19:47:44.126Z,10.17
2019-04-26T19:50:14.494Z,10.47
2019-04-26T19:52:49.375Z,11.03
2019-04-26T19:55:36.207Z,11.17
2019-04-26T19:58:16.676Z,11.70
2019-04-26T20:00:45.181Z,13.03
2019-04-26T20:03:16.516Z,12.87
2019-04-26T20:05:44.080Z,13.97
2019-04-26T20:08:12.886Z,14.70
2019-04-26T20:10:45.372Z,16.67
2019-04-26T20:13:15.063Z,16.07
2019-04-26T20:15:42.323Z,17.30
2019-04-26T20:18:12.251Z,18.03
2019-04-26T20:20:41.429Z,17.43
2019-04-26T20:23:10.261Z,17.60
2019-04-26T20:25:38.694Z,17.50
2019-04-26T20:28:07.149Z,18.37
2019-04-26T20:30:57.876Z,19.57
2019-04-26T20:33:26.630Z,19.30
2019-04-26T20:35:57.419Z,20.67
2019-04-26T20:38:24.398Z,20.77
2019-04-26T20:40:53.481Z,20.60
2019-04-26T20:43:26.383Z,22.07
2019-04-26T20:46:10.517Z,20.90
2019-04-26T20:48:25.671Z,21.53
2019-04-26T20:50:55.327Z,22.30
2019-04-26T20:53:22.820Z,21.87
2019-04-26T20:55:52.834Z,21.70
2019-04-26T20:58:21.573Z,21.93
2019-04-26T21:00:54.594Z,22.33
2019-04-26T21:03:24.810Z,22.97
2019-04-26T21:05:58.853Z,23.63
2019-04-26T21:08:25.705Z,23.03
2019-04-26T21:10:52.086Z,25.20
2019-04-26T21:13:23.663Z,24.83
2019-04-26T21:15:57.985Z,25.23
2019-04-26T21:18:22.965Z,23.73
2019-04-26T21:20:52.156Z,24.17
2019-04-26T21:23:22.270Z,24.97
2019-04-26T21:25:52.559Z,24.00
2019-04-26T21:28:22.642Z,25.10
2019-04-26T21:30:52.810Z,27.70
2019-04-26T21:33:23.991Z,28.40
2019-04-26T21:35:57.572Z,30.57
2019-04-26T21:38:33.349Z,33.13
2019-04-26T21:41:10.996Z,33.47
2019-04-26T21:43:38.072Z,33.00
2019-04-26T21:46:08.602Z,34.07
2019-04-26T21:48:37.366Z,35.13
2019-04-26T21:51:08.542Z,38.10
2019-04-26T21:53:38.213Z,38.50
2019-04-26T21:56:11.654Z,38.27
2019-04-26T21:58:37.881Z,39.57
2019-04-26T22:01:15.009Z,38.63
2019-04-26T22:03:47.404Z,40.47
2019-04-26T22:06:11.420Z,39.67
2019-04-26T22:08:41.510Z,40.20
2019-04-26T22:11:13.926Z,41.90
2019-04-26T22:13:43.215Z,41.57
2019-04-26T22:16:34.274Z,42.17
2019-04-26T22:19:14.589Z,42.20
2019-04-26T22:21:47.551Z,43.17
2019-04-26T22:24:20.720Z,43.30
2019-04-26T22:26:49.173Z,41.07
2019-04-26T22:29:17.618Z,41.70
2019-04-26T22:31:46.283Z,43.93
2019-04-26T22:34:14.793Z,45.93
2019-04-26T22:36:43.886Z,44.90
2019-04-26T22:39:17.617Z,43.27
2019-04-26T22:41:46.140Z,43.83
2019-04-26T22:44:19.407Z,44.33
2019-04-26T22:46:58.843Z,44.10
2019-04-26T22:49:25.563Z,40.50
2019-04-26T22:51:54.001Z,41.03
2019-04-26T22:54:23.095Z,37.67
2019-04-26T22:56:53.817Z,35.90
2019-04-26T22:59:22.931Z,36.30
2019-04-26T23:01:53.420Z,33.43
2019-04-26T23:04:23.515Z,30.13
2019-04-26T23:06:54.241Z,30.13
2019-04-26T23:09:23.302Z,25.93
2019-04-26T23:11:56.489Z,22.07
2019-04-26T23:14:43.747Z,22.37
2019-04-26T23:17:27.231Z,19.50
2019-04-26T23:20:00.658Z,21.17
2019-04-26T23:22:30.984Z,19.83
2019-04-26T23:24:59.373Z,19.63
2019-04-26T23:27:27.811Z,18.37
2019-04-26T23:29:58.328Z,18.40
2019-04-26T23:32:26.495Z,20.10
2019-04-26T23:34:58.244Z,20.37
2019-04-26T23:37:27.671Z,18.43
2019-04-26T23:39:55.337Z,18.80
2019-04-26T23:42:25.077Z,18.43
2019-04-26T23:44:53.715Z,19.40
2019-04-26T23:47:23.701Z,20.27
2019-04-26T23:49:53.831Z,19.67
2019-04-26T23:52:23.043Z,19.50
2019-04-26T23:54:52.987Z,21.13
2019-04-26T23:57:21.574Z,20.47
2019-04-26T23:59:51.201Z,21.67
